sensor_id;sensor_type;location;lat;lon;timestamp;temperature;humidity
38183;DHT22;23991;52.430;10.586;2023-12-04T00:01:21;-3276.40;80.10
38183;DHT22;23991;52.430;10.586;2023-12-04T00:03:46;-3276.40;80.20
38183;DHT22;23991;52.430;10.586;2023-12-04T00:06:12;-3276.40;80.20
38183;DHT22;23991;52.430;10.586;2023-12-04T00:08:38;-3276.40;80.20
38183;DHT22;23991;52.430;10.586;2023-12-04T00:11:05;-3276.40;80.30
38183;DHT22;23991;52.430;10.586;2023-12-04T00:13:31;-3276.30;80.40
38183;DHT22;23991;52.430;10.586;2023-12-04T00:15:56;-3276.30;80.40
38183;DHT22;23991;52.430;10.586;2023-12-04T00:18:22;-3276.30;80.50
38183;DHT22;23991;52.430;10.586;2023-12-04T00:20:51;-3276.30;80.50
38183;DHT22;23991;52.430;10.586;2023-12-04T00:23:17;-3276.30;80.40
38183;DHT22;23991;52.430;10.586;2023-12-04T00:25:43;-3276.40;80.50
38183;DHT22;23991;52.430;10.586;2023-12-04T00:28:09;-3276.40;80.50
38183;DHT22;23991;52.430;10.586;2023-12-04T00:30:34;-3276.30;80.50
38183;DHT22;23991;52.430;10.586;2023-12-04T00:33:00;-3276.40;80.50
38183;DHT22;23991;52.430;10.586;2023-12-04T00:35:26;-3276.40;80.60
38183;DHT22;23991;52.430;10.586;2023-12-04T00:37:51;-3276.40;80.60
38183;DHT22;23991;52.430;10.586;2023-12-04T00:40:17;-3276.30;80.60
38183;DHT22;23991;52.430;10.586;2023-12-04T00:42:45;-3276.30;80.30
38183;DHT22;23991;52.430;10.586;2023-12-04T00:45:11;-3276.30;80.40
38183;DHT22;23991;52.430;10.586;2023-12-04T00:47:37;-3276.30;80.30
38183;DHT22;23991;52.430;10.586;2023-12-04T00:50:02;-3276.30;80.30
38183;DHT22;23991;52.430;10.586;2023-12-04T00:52:28;-3276.30;80.20
38183;DHT22;23991;52.430;10.586;2023-12-04T00:54:54;-3276.30;80.20
38183;DHT22;23991;52.430;10.586;2023-12-04T00:57:19;-3276.30;80.30
38183;DHT22;23991;52.430;10.586;2023-12-04T00:59:46;-3276.30;80.30
38183;DHT22;23991;52.430;10.586;2023-12-04T01:02:12;-3276.30;80.30
38183;DHT22;23991;52.430;10.586;2023-12-04T01:04:41;-3276.30;80.40
38183;DHT22;23991;52.430;10.586;2023-12-04T01:07:07;-3276.30;80.40
38183;DHT22;23991;52.430;10.586;2023-12-04T01:09:35;-3276.30;80.40
38183;DHT22;23991;52.430;10.586;2023-12-04T01:12:00;-3276.30;80.40
38183;DHT22;23991;52.430;10.586;2023-12-04T01:14:26;-3276.30;80.50
38183;DHT22;23991;52.430;10.586;2023-12-04T01:16:52;-3276.30;80.40
38183;DHT22;23991;52.430;10.586;2023-12-04T01:19:18;-3276.30;80.50
38183;DHT22;23991;52.430;10.586;2023-12-04T01:21:43;-3276.30;80.50
38183;DHT22;23991;52.430;10.586;2023-12-04T01:24:09;-3276.30;80.40
38183;DHT22;23991;52.430;10.586;2023-12-04T01:26:35;-3276.30;80.40
38183;DHT22;23991;52.430;10.586;2023-12-04T01:29:01;-3276.30;80.50
38183;DHT22;23991;52.430;10.586;2023-12-04T01:31:27;-3276.30;80.60
38183;DHT22;23991;52.430;10.586;2023-12-04T01:33:53;-3276.30;80.60
38183;DHT22;23991;52.430;10.586;2023-12-04T01:36:18;-3276.20;80.50
38183;DHT22;23991;52.430;10.586;2023-12-04T01:38:44;-3276.30;80.50
38183;DHT22;23991;52.430;10.586;2023-12-04T01:41:09;-3276.30;80.60
38183;DHT22;23991;52.430;10.586;2023-12-04T01:43:35;-3276.20;80.60
38183;DHT22;23991;52.430;10.586;2023-12-04T01:46:01;-3276.30;80.60
38183;DHT22;23991;52.430;10.586;2023-12-04T01:48:28;-3276.20;80.60
38183;DHT22;23991;52.430;10.586;2023-12-04T01:50:54;-3276.30;80.60
38183;DHT22;23991;52.430;10.586;2023-12-04T01:53:21;-3276.20;80.60
38183;DHT22;23991;52.430;10.586;2023-12-04T01:55:47;-3276.30;80.70
38183;DHT22;23991;52.430;10.586;2023-12-04T01:58:13;-3276.20;80.70
38183;DHT22;23991;52.430;10.586;2023-12-04T02:00:38;-3276.20;80.70
38183;DHT22;23991;52.430;10.586;2023-12-04T02:03:04;-3276.20;80.70
38183;DHT22;23991;52.430;10.586;2023-12-04T02:05:31;-3276.20;80.80
38183;DHT22;23991;52.430;10.586;2023-12-04T02:08:00;-3276.20;80.80
38183;DHT22;23991;52.430;10.586;2023-12-04T02:10:26;-3276.20;81.00
38183;DHT22;23991;52.430;10.586;2023-12-04T02:12:52;-3276.20;81.00
38183;DHT22;23991;52.430;10.586;2023-12-04T02:15:17;-3276.20;81.10
38183;DHT22;23991;52.430;10.586;2023-12-04T02:17:43;-3276.20;81.20
38183;DHT22;23991;52.430;10.586;2023-12-04T02:20:12;-3276.20;81.20
38183;DHT22;23991;52.430;10.586;2023-12-04T02:22:38;-3276.20;81.20
38183;DHT22;23991;52.430;10.586;2023-12-04T02:25:04;-3276.30;81.20
38183;DHT22;23991;52.430;10.586;2023-12-04T02:27:49;-3276.30;81.30
38183;DHT22;23991;52.430;10.586;2023-12-04T02:30:18;-3276.30;81.40
38183;DHT22;23991;52.430;10.586;2023-12-04T02:32:47;-3276.30;81.40
38183;DHT22;23991;52.430;10.586;2023-12-04T02:35:14;-3276.30;81.50
38183;DHT22;23991;52.430;10.586;2023-12-04T02:37:42;-3276.20;81.50
38183;DHT22;23991;52.430;10.586;2023-12-04T02:40:08;-3276.20;81.50
38183;DHT22;23991;52.430;10.586;2023-12-04T02:42:35;-3276.20;81.50
38183;DHT22;23991;52.430;10.586;2023-12-04T02:45:01;-3276.20;81.50
38183;DHT22;23991;52.430;10.586;2023-12-04T02:47:27;-3276.30;81.60
38183;DHT22;23991;52.430;10.586;2023-12-04T02:49:52;-3276.20;81.60
38183;DHT22;23991;52.430;10.586;2023-12-04T02:52:18;-3276.30;81.70
38183;DHT22;23991;52.430;10.586;2023-12-04T02:54:44;-3276.20;81.70
38183;DHT22;23991;52.430;10.586;2023-12-04T02:57:09;-3276.30;81.70
38183;DHT22;23991;52.430;10.586;2023-12-04T02:59:35;-3276.20;81.80
38183;DHT22;23991;52.430;10.586;2023-12-04T03:02:00;-3276.30;81.80
38183;DHT22;23991;52.430;10.586;2023-12-04T03:04:28;-3276.20;81.80
38183;DHT22;23991;52.430;10.586;2023-12-04T03:06:54;-3276.30;81.90
38183;DHT22;23991;52.430;10.586;2023-12-04T03:09:20;-3276.30;81.90
38183;DHT22;23991;52.430;10.586;2023-12-04T03:11:46;-3276.30;82.00
38183;DHT22;23991;52.430;10.586;2023-12-04T03:14:11;-3276.30;82.10
38183;DHT22;23991;52.430;10.586;2023-12-04T03:16:37;-3276.30;82.00
38183;DHT22;23991;52.430;10.586;2023-12-04T03:19:06;-3276.30;82.10
38183;DHT22;23991;52.430;10.586;2023-12-04T03:21:32;-3276.30;82.10
38183;DHT22;23991;52.430;10.586;2023-12-04T03:23:57;-3276.30;82.10
38183;DHT22;23991;52.430;10.586;2023-12-04T03:26:23;-3276.30;82.20
38183;DHT22;23991;52.430;10.586;2023-12-04T03:28:48;-3276.30;82.20
38183;DHT22;23991;52.430;10.586;2023-12-04T03:31:14;-3276.30;82.20
38183;DHT22;23991;52.430;10.586;2023-12-04T03:33:40;-3276.30;82.20
38183;DHT22;23991;52.430;10.586;2023-12-04T03:36:06;-3276.30;82.20
38183;DHT22;23991;52.430;10.586;2023-12-04T03:38:31;-3276.30;82.30
38183;DHT22;23991;52.430;10.586;2023-12-04T03:40:57;-3276.30;82.20
38183;DHT22;23991;52.430;10.586;2023-12-04T03:43:22;-3276.30;82.30
38183;DHT22;23991;52.430;10.586;2023-12-04T03:45:48;-3276.30;82.20
38183;DHT22;23991;52.430;10.586;2023-12-04T03:48:14;-3276.30;82.10
38183;DHT22;23991;52.430;10.586;2023-12-04T03:50:39;-3276.30;82.10
38183;DHT22;23991;52.430;10.586;2023-12-04T03:53:05;-3276.30;82.10
38183;DHT22;23991;52.430;10.586;2023-12-04T03:55:31;-3276.30;82.00
38183;DHT22;23991;52.430;10.586;2023-12-04T03:57:57;-3276.30;82.10
38183;DHT22;23991;52.430;10.586;2023-12-04T04:00:23;-3276.30;82.10
38183;DHT22;23991;52.430;10.586;2023-12-04T04:02:49;-3276.30;82.20
38183;DHT22;23991;52.430;10.586;2023-12-04T04:05:15;-3276.30;82.20
38183;DHT22;23991;52.430;10.586;2023-12-04T04:07:40;-3276.30;82.30
38183;DHT22;23991;52.430;10.586;2023-12-04T04:10:09;-3276.30;82.30
38183;DHT22;23991;52.430;10.586;2023-12-04T04:12:35;-3276.40;82.40
38183;DHT22;23991;52.430;10.586;2023-12-04T04:15:01;-3276.40;82.50
38183;DHT22;23991;52.430;10.586;2023-12-04T04:17:27;-3276.40;82.50
38183;DHT22;23991;52.430;10.586;2023-12-04T04:19:53;-3276.40;82.40
38183;DHT22;23991;52.430;10.586;2023-12-04T04:22:19;-3276.40;82.50
38183;DHT22;23991;52.430;10.586;2023-12-04T04:24:46;-3276.40;82.50
38183;DHT22;23991;52.430;10.586;2023-12-04T04:27:12;-3276.40;82.50
38183;DHT22;23991;52.430;10.586;2023-12-04T04:29:37;-3276.40;82.40
38183;DHT22;23991;52.430;10.586;2023-12-04T04:32:03;-3276.30;82.50
38183;DHT22;23991;52.430;10.586;2023-12-04T04:34:29;-3276.30;82.60
38183;DHT22;23991;52.430;10.586;2023-12-04T04:36:55;-3276.40;82.70
38183;DHT22;23991;52.430;10.586;2023-12-04T04:39:20;-3276.40;82.70
38183;DHT22;23991;52.430;10.586;2023-12-04T04:41:46;-3276.40;82.70
38183;DHT22;23991;52.430;10.586;2023-12-04T04:44:11;-3276.30;82.80
38183;DHT22;23991;52.430;10.586;2023-12-04T04:46:40;-3276.40;82.90
38183;DHT22;23991;52.430;10.586;2023-12-04T04:49:06;-3276.40;83.00
38183;DHT22;23991;52.430;10.586;2023-12-04T04:51:37;-3276.40;83.00
38183;DHT22;23991;52.430;10.586;2023-12-04T04:54:03;-3276.40;83.20
38183;DHT22;23991;52.430;10.586;2023-12-04T04:56:29;-3276.40;83.20
38183;DHT22;23991;52.430;10.586;2023-12-04T04:58:55;-3276.40;83.40
38183;DHT22;23991;52.430;10.586;2023-12-04T05:01:21;-3276.30;83.40
38183;DHT22;23991;52.430;10.586;2023-12-04T05:03:46;-3276.30;83.60
38183;DHT22;23991;52.430;10.586;2023-12-04T05:06:12;-3276.30;83.70
38183;DHT22;23991;52.430;10.586;2023-12-04T05:08:38;-3276.30;83.80
38183;DHT22;23991;52.430;10.586;2023-12-04T05:11:04;-3276.30;84.00
38183;DHT22;23991;52.430;10.586;2023-12-04T05:13:29;-3276.30;84.10
38183;DHT22;23991;52.430;10.586;2023-12-04T05:15:55;-3276.30;84.20
38183;DHT22;23991;52.430;10.586;2023-12-04T05:18:21;-3276.20;84.40
38183;DHT22;23991;52.430;10.586;2023-12-04T05:20:46;-3276.20;84.50
38183;DHT22;23991;52.430;10.586;2023-12-04T05:23:12;-3276.30;84.70
38183;DHT22;23991;52.430;10.586;2023-12-04T05:25:37;-3276.30;84.80
38183;DHT22;23991;52.430;10.586;2023-12-04T05:28:04;-3276.30;84.90
38183;DHT22;23991;52.430;10.586;2023-12-04T05:30:29;-3276.30;85.00
38183;DHT22;23991;52.430;10.586;2023-12-04T05:32:55;-3276.30;85.10
38183;DHT22;23991;52.430;10.586;2023-12-04T05:35:21;-3276.30;85.20
38183;DHT22;23991;52.430;10.586;2023-12-04T05:37:46;-3276.30;85.30
38183;DHT22;23991;52.430;10.586;2023-12-04T05:40:12;-3276.40;85.30
38183;DHT22;23991;52.430;10.586;2023-12-04T05:42:38;-3276.40;85.30
38183;DHT22;23991;52.430;10.586;2023-12-04T05:45:04;-3276.30;85.10
38183;DHT22;23991;52.430;10.586;2023-12-04T05:47:29;-3276.30;85.00
38183;DHT22;23991;52.430;10.586;2023-12-04T05:49:55;-3276.30;85.00
38183;DHT22;23991;52.430;10.586;2023-12-04T05:52:21;-3276.30;85.00
38183;DHT22;23991;52.430;10.586;2023-12-04T05:54:46;-3276.40;85.00
38183;DHT22;23991;52.430;10.586;2023-12-04T05:57:12;-3276.50;84.80
38183;DHT22;23991;52.430;10.586;2023-12-04T05:59:38;-3276.50;84.50
38183;DHT22;23991;52.430;10.586;2023-12-04T06:02:03;-3276.50;84.40
38183;DHT22;23991;52.430;10.586;2023-12-04T06:04:29;-3276.50;84.10
38183;DHT22;23991;52.430;10.586;2023-12-04T06:06:54;-3276.50;84.00
38183;DHT22;23991;52.430;10.586;2023-12-04T06:09:20;-3276.60;83.90
38183;DHT22;23991;52.430;10.586;2023-12-04T06:11:46;-3276.60;83.80
38183;DHT22;23991;52.430;10.586;2023-12-04T06:14:11;-3276.60;83.60
38183;DHT22;23991;52.430;10.586;2023-12-04T06:16:37;-3276.60;83.40
38183;DHT22;23991;52.430;10.586;2023-12-04T06:19:03;-3276.60;83.20
38183;DHT22;23991;52.430;10.586;2023-12-04T06:21:30;-3276.60;82.90
38183;DHT22;23991;52.430;10.586;2023-12-04T06:23:56;-3276.60;82.60
38183;DHT22;23991;52.430;10.586;2023-12-04T06:26:23;-3276.60;82.40
38183;DHT22;23991;52.430;10.586;2023-12-04T06:28:49;-3276.60;82.20
38183;DHT22;23991;52.430;10.586;2023-12-04T06:31:15;-3276.60;82.30
38183;DHT22;23991;52.430;10.586;2023-12-04T06:33:44;-3276.60;82.20
38183;DHT22;23991;52.430;10.586;2023-12-04T06:36:12;-3276.70;82.00
38183;DHT22;23991;52.430;10.586;2023-12-04T06:38:40;-3276.70;82.10
38183;DHT22;23991;52.430;10.586;2023-12-04T06:41:07;0.00;82.00
38183;DHT22;23991;52.430;10.586;2023-12-04T06:43:33;0.00;81.60
38183;DHT22;23991;52.430;10.586;2023-12-04T06:45:59;0.00;81.40
38183;DHT22;23991;52.430;10.586;2023-12-04T06:48:25;0.00;81.30
38183;DHT22;23991;52.430;10.586;2023-12-04T06:50:50;0.00;81.30
38183;DHT22;23991;52.430;10.586;2023-12-04T06:53:16;0.00;81.30
38183;DHT22;23991;52.430;10.586;2023-12-04T06:55:42;0.00;81.30
38183;DHT22;23991;52.430;10.586;2023-12-04T06:58:07;0.00;81.20
38183;DHT22;23991;52.430;10.586;2023-12-04T07:00:33;0.00;81.00
38183;DHT22;23991;52.430;10.586;2023-12-04T07:02:59;0.00;81.00
38183;DHT22;23991;52.430;10.586;2023-12-04T07:05:24;0.00;81.10
38183;DHT22;23991;52.430;10.586;2023-12-04T07:07:50;0.00;81.00
38183;DHT22;23991;52.430;10.586;2023-12-04T07:10:15;0.00;80.80
38183;DHT22;23991;52.430;10.586;2023-12-04T07:12:42;0.00;80.80
38183;DHT22;23991;52.430;10.586;2023-12-04T07:15:08;0.00;80.60
38183;DHT22;23991;52.430;10.586;2023-12-04T07:17:35;0.00;80.40
38183;DHT22;23991;52.430;10.586;2023-12-04T07:20:01;0.00;80.40
38183;DHT22;23991;52.430;10.586;2023-12-04T07:22:27;0.00;80.30
38183;DHT22;23991;52.430;10.586;2023-12-04T07:24:52;0.00;80.30
38183;DHT22;23991;52.430;10.586;2023-12-04T07:27:18;0.00;80.40
38183;DHT22;23991;52.430;10.586;2023-12-04T07:29:44;0.00;80.30
38183;DHT22;23991;52.430;10.586;2023-12-04T07:32:10;0.00;80.10
38183;DHT22;23991;52.430;10.586;2023-12-04T07:34:36;0.00;80.20
38183;DHT22;23991;52.430;10.586;2023-12-04T07:37:02;0.00;80.00
38183;DHT22;23991;52.430;10.586;2023-12-04T07:39:28;0.00;80.00
38183;DHT22;23991;52.430;10.586;2023-12-04T07:41:54;0.00;80.00
38183;DHT22;23991;52.430;10.586;2023-12-04T07:44:20;0.00;80.00
38183;DHT22;23991;52.430;10.586;2023-12-04T07:46:46;0.00;80.10
38183;DHT22;23991;52.430;10.586;2023-12-04T07:49:12;0.00;80.30
38183;DHT22;23991;52.430;10.586;2023-12-04T07:51:38;0.00;80.00
38183;DHT22;23991;52.430;10.586;2023-12-04T07:54:04;0.00;79.80
38183;DHT22;23991;52.430;10.586;2023-12-04T07:56:30;0.00;79.60
38183;DHT22;23991;52.430;10.586;2023-12-04T07:58:56;0.00;79.60
38183;DHT22;23991;52.430;10.586;2023-12-04T08:01:23;0.00;79.40
38183;DHT22;23991;52.430;10.586;2023-12-04T08:03:49;0.00;79.40
38183;DHT22;23991;52.430;10.586;2023-12-04T08:06:15;0.00;79.70
38183;DHT22;23991;52.430;10.586;2023-12-04T08:08:41;0.00;79.90
38183;DHT22;23991;52.430;10.586;2023-12-04T08:11:10;0.00;80.00
38183;DHT22;23991;52.430;10.586;2023-12-04T08:13:35;0.10;79.80
38183;DHT22;23991;52.430;10.586;2023-12-04T08:16:01;0.10;79.80
38183;DHT22;23991;52.430;10.586;2023-12-04T08:18:27;0.10;79.70
38183;DHT22;23991;52.430;10.586;2023-12-04T08:20:52;0.10;79.50
38183;DHT22;23991;52.430;10.586;2023-12-04T08:23:18;0.20;79.50
38183;DHT22;23991;52.430;10.586;2023-12-04T08:25:44;0.20;79.10
38183;DHT22;23991;52.430;10.586;2023-12-04T08:28:09;0.20;79.20
38183;DHT22;23991;52.430;10.586;2023-12-04T08:30:35;0.20;78.90
38183;DHT22;23991;52.430;10.586;2023-12-04T08:33:01;0.30;79.10
38183;DHT22;23991;52.430;10.586;2023-12-04T08:35:26;0.30;78.80
38183;DHT22;23991;52.430;10.586;2023-12-04T08:37:52;0.40;78.40
38183;DHT22;23991;52.430;10.586;2023-12-04T08:40:17;0.40;78.30
38183;DHT22;23991;52.430;10.586;2023-12-04T08:42:43;0.50;78.00
38183;DHT22;23991;52.430;10.586;2023-12-04T08:45:10;0.60;78.00
38183;DHT22;23991;52.430;10.586;2023-12-04T08:47:36;0.70;77.80
38183;DHT22;23991;52.430;10.586;2023-12-04T08:50:02;0.80;77.60
38183;DHT22;23991;52.430;10.586;2023-12-04T08:52:28;0.90;77.40
38183;DHT22;23991;52.430;10.586;2023-12-04T08:54:53;1.00;77.00
38183;DHT22;23991;52.430;10.586;2023-12-04T08:57:19;1.10;77.00
38183;DHT22;23991;52.430;10.586;2023-12-04T08:59:45;1.10;76.80
38183;DHT22;23991;52.430;10.586;2023-12-04T09:02:12;1.20;76.60
38183;DHT22;23991;52.430;10.586;2023-12-04T09:04:37;1.30;76.50
38183;DHT22;23991;52.430;10.586;2023-12-04T09:07:03;1.40;76.30
38183;DHT22;23991;52.430;10.586;2023-12-04T09:09:31;1.50;76.00
38183;DHT22;23991;52.430;10.586;2023-12-04T09:11:58;1.60;75.60
38183;DHT22;23991;52.430;10.586;2023-12-04T09:14:23;1.70;75.40
38183;DHT22;23991;52.430;10.586;2023-12-04T09:16:49;1.80;75.00
38183;DHT22;23991;52.430;10.586;2023-12-04T09:19:15;1.80;74.50
38183;DHT22;23991;52.430;10.586;2023-12-04T09:21:40;1.90;74.10
38183;DHT22;23991;52.430;10.586;2023-12-04T09:24:06;1.90;73.60
38183;DHT22;23991;52.430;10.586;2023-12-04T09:26:32;2.00;73.10
38183;DHT22;23991;52.430;10.586;2023-12-04T09:28:57;2.10;72.70
38183;DHT22;23991;52.430;10.586;2023-12-04T09:31:23;2.10;72.70
38183;DHT22;23991;52.430;10.586;2023-12-04T09:33:48;2.20;72.50
38183;DHT22;23991;52.430;10.586;2023-12-04T09:36:14;2.30;71.60
38183;DHT22;23991;52.430;10.586;2023-12-04T09:38:40;2.20;72.30
38183;DHT22;23991;52.430;10.586;2023-12-04T09:41:06;2.40;72.10
38183;DHT22;23991;52.430;10.586;2023-12-04T09:43:34;2.40;72.00
38183;DHT22;23991;52.430;10.586;2023-12-04T09:46:01;2.50;71.50
38183;DHT22;23991;52.430;10.586;2023-12-04T09:48:27;2.60;71.30
38183;DHT22;23991;52.430;10.586;2023-12-04T09:50:54;2.70;71.10
38183;DHT22;23991;52.430;10.586;2023-12-04T09:53:20;2.70;70.10
38183;DHT22;23991;52.430;10.586;2023-12-04T09:55:50;2.60;69.90
38183;DHT22;23991;52.430;10.586;2023-12-04T09:58:19;2.60;70.10
38183;DHT22;23991;52.430;10.586;2023-12-04T10:00:46;2.60;70.50
38183;DHT22;23991;52.430;10.586;2023-12-04T10:03:12;2.80;70.30
38183;DHT22;23991;52.430;10.586;2023-12-04T10:05:43;2.80;69.60
38183;DHT22;23991;52.430;10.586;2023-12-04T10:08:09;2.80;69.30
38183;DHT22;23991;52.430;10.586;2023-12-04T10:10:34;2.80;69.40
38183;DHT22;23991;52.430;10.586;2023-12-04T10:13:00;2.80;69.60
38183;DHT22;23991;52.430;10.586;2023-12-04T10:15:26;2.90;69.30
38183;DHT22;23991;52.430;10.586;2023-12-04T10:17:52;2.90;68.50
38183;DHT22;23991;52.430;10.586;2023-12-04T10:20:20;2.90;68.90
38183;DHT22;23991;52.430;10.586;2023-12-04T10:22:58;2.80;69.30
38183;DHT22;23991;52.430;10.586;2023-12-04T10:25:25;2.80;69.00
38183;DHT22;23991;52.430;10.586;2023-12-04T10:27:53;2.80;68.90
38183;DHT22;23991;52.430;10.586;2023-12-04T10:30:23;2.80;69.00
38183;DHT22;23991;52.430;10.586;2023-12-04T10:32:49;2.90;68.90
38183;DHT22;23991;52.430;10.586;2023-12-04T10:35:14;2.90;68.20
38183;DHT22;23991;52.430;10.586;2023-12-04T10:37:41;3.00;68.20
38183;DHT22;23991;52.430;10.586;2023-12-04T10:40:07;3.00;68.50
38183;DHT22;23991;52.430;10.586;2023-12-04T10:42:34;3.20;68.00
38183;DHT22;23991;52.430;10.586;2023-12-04T10:45:00;3.40;68.40
38183;DHT22;23991;52.430;10.586;2023-12-04T10:47:30;3.50;67.90
38183;DHT22;23991;52.430;10.586;2023-12-04T10:49:58;3.50;67.10
38183;DHT22;23991;52.430;10.586;2023-12-04T10:52:24;3.50;67.00
38183;DHT22;23991;52.430;10.586;2023-12-04T10:54:50;3.60;66.70
38183;DHT22;23991;52.430;10.586;2023-12-04T10:57:27;3.60;67.40
38183;DHT22;23991;52.430;10.586;2023-12-04T10:59:59;3.90;66.60
38183;DHT22;23991;52.430;10.586;2023-12-04T11:02:29;3.90;65.30
38183;DHT22;23991;52.430;10.586;2023-12-04T11:05:05;4.00;64.90
38183;DHT22;23991;52.430;10.586;2023-12-04T11:07:50;4.10;64.70
38183;DHT22;23991;52.430;10.586;2023-12-04T11:10:21;4.10;64.00
38183;DHT22;23991;52.430;10.586;2023-12-04T11:12:57;4.30;63.70
38183;DHT22;23991;52.430;10.586;2023-12-04T11:15:28;4.30;63.00
38183;DHT22;23991;52.430;10.586;2023-12-04T11:17:58;4.40;62.50
38183;DHT22;23991;52.430;10.586;2023-12-04T11:20:28;4.50;62.20
38183;DHT22;23991;52.430;10.586;2023-12-04T11:22:56;4.60;61.60
38183;DHT22;23991;52.430;10.586;2023-12-04T11:25:23;4.60;61.10
38183;DHT22;23991;52.430;10.586;2023-12-04T11:27:51;4.60;61.30
38183;DHT22;23991;52.430;10.586;2023-12-04T11:30:18;4.80;60.90
38183;DHT22;23991;52.430;10.586;2023-12-04T11:32:48;4.90;60.50
38183;DHT22;23991;52.430;10.586;2023-12-04T11:35:18;5.10;59.90
38183;DHT22;23991;52.430;10.586;2023-12-04T11:37:47;5.30;59.20
38183;DHT22;23991;52.430;10.586;2023-12-04T11:40:15;5.20;59.50
38183;DHT22;23991;52.430;10.586;2023-12-04T11:42:41;5.20;58.90
38183;DHT22;23991;52.430;10.586;2023-12-04T11:45:08;5.30;59.30
38183;DHT22;23991;52.430;10.586;2023-12-04T11:48:04;5.40;58.90
38183;DHT22;23991;52.430;10.586;2023-12-04T11:50:29;5.50;57.90
38183;DHT22;23991;52.430;10.586;2023-12-04T11:52:55;5.60;57.60
38183;DHT22;23991;52.430;10.586;2023-12-04T11:55:22;5.70;57.40
38183;DHT22;23991;52.430;10.586;2023-12-04T11:57:54;5.60;57.10
38183;DHT22;23991;52.430;10.586;2023-12-04T12:00:22;5.60;57.40
38183;DHT22;23991;52.430;10.586;2023-12-04T12:05:18;5.90;56.90
38183;DHT22;23991;52.430;10.586;2023-12-04T12:07:45;6.00;56.40
38183;DHT22;23991;52.430;10.586;2023-12-04T12:10:12;6.30;55.30
38183;DHT22;23991;52.430;10.586;2023-12-04T12:12:44;6.20;55.20
38183;DHT22;23991;52.430;10.586;2023-12-04T12:15:11;6.20;55.30
38183;DHT22;23991;52.430;10.586;2023-12-04T12:17:41;6.20;55.10
38183;DHT22;23991;52.430;10.586;2023-12-04T12:20:08;6.10;55.00
38183;DHT22;23991;52.430;10.586;2023-12-04T12:22:35;6.10;55.20
38183;DHT22;23991;52.430;10.586;2023-12-04T12:25:04;6.10;54.90
38183;DHT22;23991;52.430;10.586;2023-12-04T12:27:30;6.10;54.80
38183;DHT22;23991;52.430;10.586;2023-12-04T12:29:56;6.00;54.50
38183;DHT22;23991;52.430;10.586;2023-12-04T12:32:22;5.80;55.30
38183;DHT22;23991;52.430;10.586;2023-12-04T12:34:48;5.40;55.90
38183;DHT22;23991;52.430;10.586;2023-12-04T12:37:14;5.50;56.30
38183;DHT22;23991;52.430;10.586;2023-12-04T12:39:40;5.40;56.60
38183;DHT22;23991;52.430;10.586;2023-12-04T12:42:06;5.60;55.90
38183;DHT22;23991;52.430;10.586;2023-12-04T12:44:39;5.50;55.70
38183;DHT22;23991;52.430;10.586;2023-12-04T12:47:06;5.50;56.30
38183;DHT22;23991;52.430;10.586;2023-12-04T12:49:32;5.60;56.10
38183;DHT22;23991;52.430;10.586;2023-12-04T12:52:05;5.90;54.90
38183;DHT22;23991;52.430;10.586;2023-12-04T12:54:31;6.10;54.40
38183;DHT22;23991;52.430;10.586;2023-12-04T12:57:01;6.10;53.90
38183;DHT22;23991;52.430;10.586;2023-12-04T12:59:28;6.20;53.80
38183;DHT22;23991;52.430;10.586;2023-12-04T13:01:53;5.90;53.60
38183;DHT22;23991;52.430;10.586;2023-12-04T13:04:19;5.70;54.80
38183;DHT22;23991;52.430;10.586;2023-12-04T13:06:45;5.60;55.20
38183;DHT22;23991;52.430;10.586;2023-12-04T13:09:12;5.70;55.10
38183;DHT22;23991;52.430;10.586;2023-12-04T13:11:47;5.80;54.40
38183;DHT22;23991;52.430;10.586;2023-12-04T13:14:13;5.90;54.70
38183;DHT22;23991;52.430;10.586;2023-12-04T13:16:39;5.80;54.30
38183;DHT22;23991;52.430;10.586;2023-12-04T13:19:05;5.70;54.60
38183;DHT22;23991;52.430;10.586;2023-12-04T13:21:30;5.70;54.70
38183;DHT22;23991;52.430;10.586;2023-12-04T13:23:56;5.90;54.60
38183;DHT22;23991;52.430;10.586;2023-12-04T13:26:22;5.80;54.20
38183;DHT22;23991;52.430;10.586;2023-12-04T13:28:48;5.70;54.80
38183;DHT22;23991;52.430;10.586;2023-12-04T13:31:14;5.80;54.80
38183;DHT22;23991;52.430;10.586;2023-12-04T13:33:39;5.90;54.60
38183;DHT22;23991;52.430;10.586;2023-12-04T13:36:05;5.90;54.40
38183;DHT22;23991;52.430;10.586;2023-12-04T13:38:31;5.90;54.10
38183;DHT22;23991;52.430;10.586;2023-12-04T13:40:59;5.80;54.90
38183;DHT22;23991;52.430;10.586;2023-12-04T13:43:33;6.00;54.40
38183;DHT22;23991;52.430;10.586;2023-12-04T13:46:19;6.10;54.00
38183;DHT22;23991;52.430;10.586;2023-12-04T13:48:45;6.10;53.20
38183;DHT22;23991;52.430;10.586;2023-12-04T13:51:11;6.00;53.60
38183;DHT22;23991;52.430;10.586;2023-12-04T13:53:38;5.90;53.70
38183;DHT22;23991;52.430;10.586;2023-12-04T13:56:09;6.00;53.10
38183;DHT22;23991;52.430;10.586;2023-12-04T13:58:50;5.90;53.50
38183;DHT22;23991;52.430;10.586;2023-12-04T14:01:26;6.00;53.10
38183;DHT22;23991;52.430;10.586;2023-12-04T14:03:56;5.80;53.40
38183;DHT22;23991;52.430;10.586;2023-12-04T14:06:27;5.70;54.00
38183;DHT22;23991;52.430;10.586;2023-12-04T14:08:53;5.60;54.30
38183;DHT22;23991;52.430;10.586;2023-12-04T14:11:19;5.80;54.00
38183;DHT22;23991;52.430;10.586;2023-12-04T14:13:44;5.90;53.50
38183;DHT22;23991;52.430;10.586;2023-12-04T14:16:10;5.80;53.50
38183;DHT22;23991;52.430;10.586;2023-12-04T14:18:36;5.70;54.00
38183;DHT22;23991;52.430;10.586;2023-12-04T14:21:02;5.80;54.10
38183;DHT22;23991;52.430;10.586;2023-12-04T14:23:27;5.90;53.80
38183;DHT22;23991;52.430;10.586;2023-12-04T14:25:53;5.80;53.30
38183;DHT22;23991;52.430;10.586;2023-12-04T14:28:18;5.60;54.00
38183;DHT22;23991;52.430;10.586;2023-12-04T14:30:45;5.60;54.10
38183;DHT22;23991;52.430;10.586;2023-12-04T14:33:11;5.50;54.40
38183;DHT22;23991;52.430;10.586;2023-12-04T14:35:36;5.50;54.90
38183;DHT22;23991;52.430;10.586;2023-12-04T14:38:05;5.30;55.00
38183;DHT22;23991;52.430;10.586;2023-12-04T14:40:31;5.20;55.40
38183;DHT22;23991;52.430;10.586;2023-12-04T14:42:57;5.10;56.00
38183;DHT22;23991;52.430;10.586;2023-12-04T14:45:22;5.00;56.20
38183;DHT22;23991;52.430;10.586;2023-12-04T14:47:48;4.90;56.40
38183;DHT22;23991;52.430;10.586;2023-12-04T14:50:16;4.90;56.60
38183;DHT22;23991;52.430;10.586;2023-12-04T14:52:42;4.70;56.90
38183;DHT22;23991;52.430;10.586;2023-12-04T14:55:15;4.70;56.80
38183;DHT22;23991;52.430;10.586;2023-12-04T14:57:53;4.60;57.20
38183;DHT22;23991;52.430;10.586;2023-12-04T15:00:37;4.70;57.50
38183;DHT22;23991;52.430;10.586;2023-12-04T15:03:17;4.70;56.80
38183;DHT22;23991;52.430;10.586;2023-12-04T15:05:46;4.60;57.00